Back to Top

Language: 

My Weather Underground Personal Weather Station Historical Data with Graphs...

Delerius Weather Station Historical Data
Daily Summary for March 8, 2017 Units:  English    Metric   Both
« Previous Day
Next Day »
Daily Weekly Monthly Yearly Custom
  High: Low: Average:
Temperature: 55.1 °F 44.0 °F 48.7 °F
Dew Point: 48.2 °F 38.0 °F 43.2 °F
Humidity: 95 % 53 % 82 %
Wind Speed: 19.0 mph 0.0 mph 9.6 mph
Wind Gust: 30.0 mph - -
Wind:- - WSW
Pressure: 29.91 in 29.62 in -
Precipitation: 0.05 in    
Historical Graphs
 
 
Tabular Data for March 8, 2017
Time Temperature Dew Point Pressure Wind Wind Speed Wind Gust Humidity Rainfall Rate (Hourly) solar Conditions
00:05 45.1 °F 42.3 °F 29.77 in South 11.0 mph 28.0 mph 90 % 0.00 in 0 W/m2
00:15 45.1 °F 42.3 °F 29.76 in South 13.0 mph 30.0 mph 90 % 0.00 in 0 W/m2
00:20 45.1 °F 42.3 °F 29.75 in SW 14.0 mph 14.0 mph 90 % 0.00 in 0 W/m2
00:25 45.1 °F 42.6 °F 29.75 in SSW 15.0 mph 20.0 mph 91 % 0.00 in 0 W/m2
00:30 45.0 °F 42.5 °F 29.74 in SSW 14.0 mph 14.0 mph 91 % 0.00 in 0 W/m2
00:40 45.0 °F 42.5 °F 29.74 in SSW 12.0 mph 12.0 mph 91 % 0.00 in 0 W/m2
00:45 45.0 °F 42.8 °F 29.74 in SSW 12.0 mph 12.0 mph 92 % 0.00 in 0 W/m2
00:50 45.0 °F 42.5 °F 29.73 in SW 11.0 mph 11.0 mph 91 % 0.00 in 0 W/m2
00:55 45.0 °F 42.8 °F 29.72 in South 12.0 mph 14.0 mph 92 % 0.00 in 0 W/m2
01:00 45.1 °F 42.9 °F 29.72 in SW 13.0 mph 13.0 mph 92 % 0.00 in 0 W/m2
01:10 45.1 °F 42.9 °F 29.71 in SSW 14.0 mph 22.0 mph 92 % 0.00 in 0 W/m2
01:15 45.0 °F 42.8 °F 29.70 in South 13.0 mph 22.0 mph 92 % 0.04 in 0 W/m2
01:20 45.0 °F 42.8 °F 29.69 in SSW 14.0 mph 22.0 mph 92 % 0.04 in 0 W/m2
01:30 44.8 °F 42.9 °F 29.69 in SW 13.0 mph 13.0 mph 93 % 0.05 in 0 W/m2
01:35 44.8 °F 42.9 °F 29.69 in SSW 13.0 mph 22.0 mph 93 % 0.05 in 0 W/m2
01:45 44.8 °F 42.9 °F 29.68 in SW 13.0 mph 22.0 mph 93 % 0.00 in 0 W/m2
01:50 44.8 °F 43.2 °F 29.68 in SSW 14.0 mph 22.0 mph 94 % 0.00 in 0 W/m2
01:55 44.9 °F 43.3 °F 29.68 in SSW 14.0 mph 22.0 mph 94 % 0.00 in 0 W/m2
02:00 45.0 °F 43.4 °F 29.68 in SW 14.0 mph 14.0 mph 94 % 0.00 in 0 W/m2
02:05 45.1 °F 43.5 °F 29.68 in SSW 13.0 mph 22.0 mph 94 % 0.00 in 0 W/m2
02:10 45.2 °F 43.6 °F 29.68 in SW 13.0 mph 13.0 mph 94 % 0.00 in 0 W/m2
02:20 45.3 °F 43.7 °F 29.68 in SW 12.0 mph 22.0 mph 94 % 0.00 in 0 W/m2
02:25 45.4 °F 43.8 °F 29.68 in SSW 12.0 mph 22.0 mph 94 % 0.00 in 0 W/m2
02:30 45.5 °F 43.9 °F 29.68 in SW 13.0 mph 13.0 mph 94 % 0.00 in 0 W/m2
02:35 45.6 °F 44.0 °F 29.68 in SW 12.0 mph 22.0 mph 94 % 0.00 in 0 W/m2
02:40 45.7 °F 44.1 °F 29.67 in SW 11.0 mph 11.0 mph 94 % 0.00 in 0 W/m2
02:50 46.0 °F 44.4 °F 29.67 in SW 11.0 mph 22.0 mph 94 % 0.00 in 0 W/m2
03:00 46.2 °F 44.8 °F 29.66 in WSW 10.0 mph 22.0 mph 95 % 0.00 in 0 W/m2
03:05 46.4 °F 45.0 °F 29.66 in SW 9.0 mph 22.0 mph 95 % 0.00 in 0 W/m2
03:10 46.6 °F 45.2 °F 29.66 in SSW 8.0 mph 22.0 mph 95 % 0.00 in 0 W/m2
03:15 46.7 °F 45.1 °F 29.66 in SW 9.0 mph 22.0 mph 94 % 0.00 in 0 W/m2
03:25 47.2 °F 45.6 °F 29.65 in SW 10.0 mph 22.0 mph 94 % 0.00 in 0 W/m2
03:30 47.4 °F 45.8 °F 29.64 in SW 9.0 mph 22.0 mph 94 % 0.00 in 0 W/m2
03:35 47.5 °F 45.9 °F 29.64 in SW 9.0 mph 22.0 mph 94 % 0.00 in 0 W/m2
03:40 47.5 °F 45.9 °F 29.64 in SW 8.0 mph 8.0 mph 94 % 0.00 in 0 W/m2
03:45 47.8 °F 46.2 °F 29.63 in SSW 8.0 mph 22.0 mph 94 % 0.00 in 0 W/m2
03:50 47.9 °F 46.3 °F 29.63 in SW 8.0 mph 22.0 mph 94 % 0.00 in 0 W/m2
04:00 48.2 °F 46.6 °F 29.63 in SW 8.0 mph 8.0 mph 94 % 0.00 in 0 W/m2
04:05 48.3 °F 46.7 °F 29.63 in SW 8.0 mph 22.0 mph 94 % 0.00 in 0 W/m2
04:10 48.7 °F 47.1 °F 29.63 in SW 8.0 mph 22.0 mph 94 % 0.00 in 0 W/m2
04:20 49.4 °F 47.7 °F 29.62 in WSW 8.0 mph 8.0 mph 94 % 0.00 in 0 W/m2
04:25 49.7 °F 48.0 °F 29.63 in West 9.0 mph 9.0 mph 94 % 0.00 in 0 W/m2
04:35 50.0 °F 48.1 °F 29.63 in WSW 9.0 mph 22.0 mph 93 % 0.00 in 0 W/m2
04:40 50.1 °F 48.2 °F 29.63 in WSW 8.0 mph 22.0 mph 93 % 0.00 in 0 W/m2
04:45 50.2 °F 48.0 °F 29.63 in West 9.0 mph 22.0 mph 92 % 0.00 in 0 W/m2
04:50 50.3 °F 48.1 °F 29.63 in WSW 9.0 mph 9.0 mph 92 % 0.00 in 0 W/m2
04:55 50.2 °F 48.0 °F 29.63 in WNW 8.0 mph 22.0 mph 92 % 0.00 in 0 W/m2
05:00 50.1 °F 47.9 °F 29.63 in West 9.0 mph 9.0 mph 92 % 0.00 in 0 W/m2
05:05 50.1 °F 47.9 °F 29.64 in West 10.0 mph 10.0 mph 92 % 0.00 in 0 W/m2
05:10 50.0 °F 47.8 °F 29.64 in West 10.0 mph 10.0 mph 92 % 0.00 in 0 W/m2
05:15 50.0 °F 47.8 °F 29.64 in WSW 11.0 mph 14.0 mph 92 % 0.00 in 0 W/m2
05:20 49.9 °F 47.7 °F 29.64 in West 13.0 mph 22.0 mph 92 % 0.00 in 0 W/m2
05:25 50.0 °F 47.8 °F 29.64 in West 14.0 mph 22.0 mph 92 % 0.00 in 0 W/m2
05:35 49.8 °F 47.6 °F 29.64 in WNW 15.0 mph 22.0 mph 92 % 0.00 in 0 W/m2
05:45 49.8 °F 47.6 °F 29.65 in WNW 12.0 mph 22.0 mph 92 % 0.00 in 0 W/m2
05:50 49.7 °F 47.5 °F 29.65 in WNW 11.0 mph 22.0 mph 92 % 0.00 in 0 W/m2
05:55 49.7 °F 47.5 °F 29.65 in West 10.0 mph 22.0 mph 92 % 0.00 in 0 W/m2
06:00 49.6 °F 47.4 °F 29.65 in West 8.0 mph 22.0 mph 92 % 0.00 in 0 W/m2
06:05 49.5 °F 47.0 °F 29.65 in WNW 8.0 mph 22.0 mph 91 % 0.00 in 0 W/m2
06:15 49.3 °F 46.8 °F 29.67 in NNW 7.0 mph 22.0 mph 91 % 0.00 in 0 W/m2
06:20 49.2 °F 46.7 °F 29.67 in NW 6.0 mph 22.0 mph 91 % 0.00 in 0 W/m2
06:25 49.1 °F 46.6 °F 29.67 in NW 7.0 mph 22.0 mph 91 % 0.00 in 0 W/m2
06:30 49.0 °F 46.5 °F 29.68 in West 11.0 mph 22.0 mph 91 % 0.00 in 0 W/m2
06:35 49.1 °F 46.3 °F 29.68 in WNW 13.0 mph 22.0 mph 90 % 0.00 in 0 W/m2
06:45 49.3 °F 45.9 °F 29.68 in WNW 15.0 mph 18.0 mph 88 % 0.00 in 5 W/m2
06:55 49.3 °F 45.6 °F 29.68 in West 15.0 mph 22.0 mph 87 % 0.00 in 9 W/m2
07:00 49.2 °F 45.5 °F 29.68 in West 14.0 mph 14.0 mph 87 % 0.00 in 9 W/m2
07:05 49.1 °F 45.4 °F 29.68 in WNW 14.0 mph 22.0 mph 87 % 0.00 in 11 W/m2
07:10 48.9 °F 45.2 °F 29.69 in NW 13.0 mph 22.0 mph 87 % 0.00 in 21 W/m2
07:20 48.6 °F 44.9 °F 29.69 in WNW 16.0 mph 22.0 mph 87 % 0.00 in 32 W/m2
07:25 48.5 °F 44.8 °F 29.68 in West 17.0 mph 22.0 mph 87 % 0.00 in 28 W/m2
07:30 48.4 °F 44.7 °F 29.68 in WNW 17.0 mph 17.0 mph 87 % 0.00 in 32 W/m2
07:35 48.2 °F 44.5 °F 29.69 in WNW 16.0 mph 22.0 mph 87 % 0.00 in 30 W/m2
07:40 48.1 °F 44.4 °F 29.69 in West 17.0 mph 17.0 mph 87 % 0.00 in 33 W/m2
07:45 48.0 °F 44.3 °F 29.69 in WNW 18.0 mph 20.0 mph 87 % 0.00 in 58 W/m2
07:55 47.9 °F 44.2 °F 29.71 in WNW 19.0 mph 26.0 mph 87 % 0.00 in 62 W/m2
08:00 47.8 °F 44.1 °F 29.71 in West 18.0 mph 18.0 mph 87 % 0.00 in 62 W/m2
08:05 47.8 °F 44.1 °F 29.72 in West 17.0 mph 22.0 mph 87 % 0.00 in 65 W/m2
08:15 47.9 °F 43.9 °F 29.72 in WNW 15.0 mph 22.0 mph 86 % 0.00 in 63 W/m2
08:20 47.9 °F 43.9 °F 29.73 in WNW 15.0 mph 15.0 mph 86 % 0.00 in 62 W/m2
08:30 47.8 °F 43.8 °F 29.73 in West 12.0 mph 22.0 mph 86 % 0.00 in 79 W/m2
08:35 47.7 °F 43.7 °F 29.74 in WNW 13.0 mph 25.0 mph 86 % 0.00 in 86 W/m2
08:40 47.7 °F 43.7 °F 29.73 in West 15.0 mph 22.0 mph 86 % 0.00 in 102 W/m2
08:45 47.7 °F 44.0 °F 29.74 in West 14.0 mph 22.0 mph 87 % 0.00 in 118 W/m2
08:50 47.6 °F 43.9 °F 29.73 in West 13.0 mph 13.0 mph 87 % 0.00 in 93 W/m2
08:55 47.5 °F 43.8 °F 29.73 in WNW 13.0 mph 22.0 mph 87 % 0.00 in 83 W/m2
09:00 47.5 °F 43.8 °F 29.73 in WNW 13.0 mph 13.0 mph 87 % 0.00 in 137 W/m2
09:05 47.5 °F 43.8 °F 29.73 in WNW 13.0 mph 15.0 mph 87 % 0.00 in 148 W/m2
09:10 47.6 °F 43.9 °F 29.73 in NW 13.0 mph 22.0 mph 87 % 0.00 in 125 W/m2
09:15 47.7 °F 43.7 °F 29.73 in WNW 13.0 mph 22.0 mph 86 % 0.00 in 127 W/m2
09:20 47.7 °F 44.0 °F 29.73 in West 13.0 mph 13.0 mph 87 % 0.00 in 148 W/m2
09:30 47.8 °F 43.8 °F 29.74 in West 13.0 mph 22.0 mph 86 % 0.00 in 113 W/m2
09:40 47.9 °F 43.9 °F 29.75 in WNW 14.0 mph 14.0 mph 86 % 0.00 in 121 W/m2
09:45 48.0 °F 44.0 °F 29.75 in NW 13.0 mph 22.0 mph 86 % 0.00 in 135 W/m2
09:50 48.1 °F 44.1 °F 29.75 in WNW 14.0 mph 22.0 mph 86 % 0.00 in 113 W/m2
09:55 48.2 °F 43.9 °F 29.75 in West 14.0 mph 22.0 mph 85 % 0.00 in 130 W/m2
10:00 48.3 °F 44.0 °F 29.75 in WSW 11.0 mph 11.0 mph 85 % 0.00 in 144 W/m2
10:10 48.5 °F 43.9 °F 29.76 in WNW 12.0 mph 12.0 mph 84 % 0.00 in 162 W/m2
10:15 48.7 °F 44.1 °F 29.77 in West 11.0 mph 22.0 mph 84 % 0.00 in 199 W/m2
10:20 48.8 °F 44.2 °F 29.77 in WSW 10.0 mph 22.0 mph 84 % 0.00 in 183 W/m2
10:25 49.0 °F 44.4 °F 29.77 in WNW 9.0 mph 22.0 mph 84 % 0.00 in 155 W/m2
10:30 49.1 °F 44.2 °F 29.78 in West 9.0 mph 22.0 mph 83 % 0.00 in 162 W/m2
10:40 49.3 °F 44.4 °F 29.78 in WNW 9.0 mph 9.0 mph 83 % 0.00 in 142 W/m2
10:45 49.4 °F 44.5 °F 29.78 in West 9.0 mph 22.0 mph 83 % 0.00 in 188 W/m2
10:50 49.5 °F 44.6 °F 29.78 in WNW 9.0 mph 22.0 mph 83 % 0.00 in 183 W/m2
10:55 49.6 °F 44.3 °F 29.77 in West 10.0 mph 22.0 mph 82 % 0.00 in 141 W/m2
11:00 49.6 °F 44.0 °F 29.78 in WNW 12.0 mph 22.0 mph 81 % 0.00 in 144 W/m2
11:10 49.7 °F 44.1 °F 29.78 in WNW 12.0 mph 22.0 mph 81 % 0.00 in 151 W/m2
11:15 49.8 °F 44.2 °F 29.78 in WNW 10.0 mph 22.0 mph 81 % 0.00 in 158 W/m2
11:25 49.9 °F 44.0 °F 29.79 in West 10.0 mph 22.0 mph 80 % 0.00 in 200 W/m2
11:30 50.1 °F 44.2 °F 29.79 in West 9.0 mph 22.0 mph 80 % 0.00 in 185 W/m2
11:35 50.2 °F 43.9 °F 29.79 in WNW 10.0 mph 22.0 mph 79 % 0.00 in 185 W/m2
11:40 50.2 °F 43.9 °F 29.80 in West 12.0 mph 22.0 mph 79 % 0.00 in 241 W/m2
11:50 50.4 °F 43.8 °F 29.81 in WNW 15.0 mph 15.0 mph 78 % 0.00 in 200 W/m2
11:55 50.4 °F 43.5 °F 29.81 in West 15.0 mph 22.0 mph 77 % 0.00 in 218 W/m2
12:00 50.4 °F 43.5 °F 29.81 in WNW 15.0 mph 22.0 mph 77 % 0.00 in 264 W/m2
12:05 50.5 °F 43.6 °F 29.82 in WSW 15.0 mph 22.0 mph 77 % 0.00 in 253 W/m2
12:10 50.7 °F 43.8 °F 29.82 in West 13.0 mph 13.0 mph 77 % 0.00 in 295 W/m2
12:20 50.9 °F 42.9 °F 29.83 in WNW 12.0 mph 12.0 mph 74 % 0.00 in 193 W/m2
12:25 50.8 °F 42.1 °F 29.83 in West 14.0 mph 15.0 mph 72 % 0.00 in 207 W/m2
12:30 50.7 °F 42.4 °F 29.83 in West 14.0 mph 22.0 mph 73 % 0.00 in 148 W/m2
12:35 50.7 °F 42.4 °F 29.84 in West 13.0 mph 22.0 mph 73 % 0.00 in 195 W/m2
12:45 50.7 °F 42.4 °F 29.84 in WNW 10.0 mph 22.0 mph 73 % 0.00 in 199 W/m2
12:55 51.1 °F 43.1 °F 29.84 in West 10.0 mph 10.0 mph 74 % 0.00 in 339 W/m2
13:00 51.4 °F 43.0 °F 29.84 in WNW 11.0 mph 11.0 mph 73 % 0.00 in 229 W/m2
13:05 51.6 °F 42.9 °F 29.84 in WNW 12.0 mph 13.0 mph 72 % 0.00 in 503 W/m2
13:10 52.2 °F 43.1 °F 29.84 in SW 15.0 mph 15.0 mph 71 % 0.00 in 573 W/m2
13:15 52.9 °F 43.0 °F 29.84 in WNW 16.0 mph 16.0 mph 69 % 0.00 in 640 W/m2
13:20 52.9 °F 43.0 °F 29.84 in West 16.0 mph 22.0 mph 69 % 0.00 in 172 W/m2
13:30 52.5 °F 43.0 °F 29.84 in West 14.0 mph 22.0 mph 70 % 0.00 in 313 W/m2
13:35 52.7 °F 43.6 °F 29.84 in WNW 14.0 mph 22.0 mph 71 % 0.00 in 675 W/m2
13:40 53.6 °F 43.7 °F 29.84 in West 14.0 mph 22.0 mph 69 % 0.00 in 701 W/m2
13:45 54.2 °F 43.5 °F 29.83 in WNW 14.0 mph 22.0 mph 67 % 0.00 in 647 W/m2
13:50 54.6 °F 43.5 °F 29.83 in WSW 15.0 mph 22.0 mph 66 % 0.00 in 612 W/m2
14:00 55.1 °F 43.1 °F 29.83 in West 15.0 mph 22.0 mph 64 % 0.00 in 568 W/m2
14:05 55.1 °F 42.3 °F 29.83 in West 13.0 mph 22.0 mph 62 % 0.00 in 483 W/m2
14:10 54.5 °F 41.7 °F 29.83 in West 14.0 mph 22.0 mph 62 % 0.00 in 91 W/m2
14:20 53.1 °F 40.4 °F 29.83 in WNW 14.0 mph 22.0 mph 62 % 0.00 in 90 W/m2
14:25 52.8 °F 40.1 °F 29.83 in WNW 13.0 mph 22.0 mph 62 % 0.00 in 197 W/m2
14:35 54.0 °F 41.3 °F 29.83 in West 12.0 mph 22.0 mph 62 % 0.00 in 469 W/m2
14:40 54.7 °F 40.6 °F 29.83 in West 10.0 mph 10.0 mph 59 % 0.00 in 371 W/m2
14:45 54.8 °F 38.5 °F 29.83 in West 11.0 mph 11.0 mph 54 % 0.00 in 329 W/m2
14:50 54.8 °F 38.0 °F 29.83 in West 13.0 mph 22.0 mph 53 % 0.00 in 353 W/m2
14:55 54.7 °F 38.8 °F 29.83 in West 12.0 mph 22.0 mph 55 % 0.00 in 258 W/m2
15:00 54.6 °F 39.7 °F 29.83 in SW 11.0 mph 11.0 mph 57 % 0.00 in 380 W/m2
15:10 54.8 °F 39.8 °F 29.83 in West 10.0 mph 22.0 mph 57 % 0.00 in 276 W/m2
15:15 54.8 °F 40.3 °F 29.83 in WSW 10.0 mph 22.0 mph 58 % 0.00 in 346 W/m2
15:20 55.0 °F 40.9 °F 29.83 in WSW 9.0 mph 9.0 mph 59 % 0.00 in 364 W/m2
15:25 55.0 °F 41.4 °F 29.83 in WSW 9.0 mph 19.0 mph 60 % 0.00 in 248 W/m2
15:30 54.2 °F 41.0 °F 29.83 in West 12.0 mph 22.0 mph 61 % 0.00 in 355 W/m2
15:40 54.0 °F 41.3 °F 29.83 in WNW 11.0 mph 11.0 mph 62 % 0.00 in 323 W/m2
15:45 54.1 °F 40.9 °F 29.84 in West 10.0 mph 22.0 mph 61 % 0.00 in 237 W/m2
15:55 53.9 °F 40.8 °F 29.84 in WSW 12.0 mph 22.0 mph 61 % 0.00 in 227 W/m2
16:00 53.6 °F 40.9 °F 29.84 in WNW 12.0 mph 12.0 mph 62 % 0.00 in 146 W/m2
16:05 53.3 °F 41.0 °F 29.84 in WSW 10.0 mph 22.0 mph 63 % 0.00 in 91 W/m2
16:15 52.7 °F 41.3 °F 29.84 in WSW 10.0 mph 22.0 mph 65 % 0.00 in 174 W/m2
16:20 52.6 °F 41.2 °F 29.85 in West 9.0 mph 9.0 mph 65 % 0.00 in 220 W/m2
16:25 52.5 °F 41.5 °F 29.85 in WSW 10.0 mph 10.0 mph 66 % 0.00 in 209 W/m2
16:30 52.5 °F 41.9 °F 29.85 in SW 9.0 mph 9.0 mph 67 % 0.00 in 192 W/m2
16:35 52.5 °F 42.2 °F 29.85 in West 7.0 mph 22.0 mph 68 % 0.00 in 171 W/m2
16:40 52.3 °F 42.4 °F 29.84 in WNW 7.0 mph 22.0 mph 69 % 0.00 in 171 W/m2
16:50 52.0 °F 42.5 °F 29.85 in WSW 9.0 mph 9.0 mph 70 % 0.00 in 72 W/m2
16:55 51.8 °F 41.9 °F 29.85 in SW 10.0 mph 18.0 mph 69 % 0.00 in 46 W/m2
17:00 51.6 °F 41.8 °F 29.85 in West 10.0 mph 10.0 mph 69 % 0.00 in 47 W/m2
17:05 51.5 °F 42.0 °F 29.85 in WSW 11.0 mph 15.0 mph 70 % 0.00 in 51 W/m2
17:10 51.3 °F 41.8 °F 29.86 in West 11.0 mph 22.0 mph 70 % 0.00 in 37 W/m2
17:20 50.9 °F 41.8 °F 29.86 in West 7.0 mph 22.0 mph 71 % 0.00 in 21 W/m2
17:30 50.6 °F 41.9 °F 29.86 in West 8.0 mph 22.0 mph 72 % 0.00 in 19 W/m2
17:35 50.4 °F 41.7 °F 29.86 in WSW 8.0 mph 22.0 mph 72 % 0.00 in 18 W/m2
17:40 50.2 °F 41.9 °F 29.86 in WSW 6.0 mph 6.0 mph 73 % 0.00 in 14 W/m2
17:45 50.1 °F 41.8 °F 29.87 in WSW 5.0 mph 22.0 mph 73 % 0.00 in 11 W/m2
17:55 49.7 °F 41.7 °F 29.87 in WSW 7.0 mph 22.0 mph 74 % 0.00 in 5 W/m2
18:00 49.6 °F 41.7 °F 29.87 in WSW 7.0 mph 7.0 mph 74 % 0.00 in 0 W/m2
18:05 49.5 °F 41.6 °F 29.87 in WSW 6.0 mph 22.0 mph 74 % 0.00 in 0 W/m2
18:10 49.3 °F 41.7 °F 29.87 in WSW 5.0 mph 22.0 mph 75 % 0.00 in 0 W/m2
18:15 49.1 °F 41.9 °F 29.87 in SW 5.0 mph 22.0 mph 76 % 0.00 in 0 W/m2
18:20 49.0 °F 41.8 °F 29.88 in West 4.0 mph 4.0 mph 76 % 0.00 in 0 W/m2
18:30 48.6 °F 41.7 °F 29.88 in WSW 1.0 mph 1.0 mph 77 % 0.00 in 0 W/m2
18:35 48.4 °F 41.9 °F 29.88 in WSW 1.0 mph 22.0 mph 78 % 0.00 in 0 W/m2
18:40 48.1 °F 41.6 °F 29.89 in WSW 1.0 mph 22.0 mph 78 % 0.00 in 0 W/m2
18:45 47.8 °F 41.6 °F 29.88 in SSE 2.0 mph 22.0 mph 79 % 0.00 in 0 W/m2
18:55 47.3 °F 41.4 °F 29.88 in SSE 1.0 mph 22.0 mph 80 % 0.00 in 0 W/m2
19:00 47.0 °F 41.1 °F 29.88 in SSE 1.0 mph 22.0 mph 80 % 0.00 in 0 W/m2
19:10 46.5 °F 41.3 °F 29.89 in SSE 1.0 mph 1.0 mph 82 % 0.00 in 0 W/m2
19:15 46.4 °F 41.2 °F 29.89 in South 1.0 mph 22.0 mph 82 % 0.00 in 0 W/m2
19:20 46.3 °F 41.1 °F 29.89 in South 1.0 mph 1.0 mph 82 % 0.00 in 0 W/m2
19:25 46.4 °F 41.5 °F 29.89 in South 1.0 mph 22.0 mph 83 % 0.00 in 0 W/m2
19:35 46.4 °F 41.2 °F 29.89 in WSW 2.0 mph 22.0 mph 82 % 0.00 in 0 W/m2
19:40 46.6 °F 41.7 °F 29.89 in SW 3.0 mph 22.0 mph 83 % 0.00 in 0 W/m2
19:45 46.7 °F 41.5 °F 29.89 in WNW 4.0 mph 22.0 mph 82 % 0.00 in 0 W/m2
19:50 46.7 °F 41.5 °F 29.89 in WNW 3.0 mph 22.0 mph 82 % 0.00 in 0 W/m2
19:55 46.6 °F 41.4 °F 29.90 in WNW 3.0 mph 22.0 mph 82 % 0.00 in 0 W/m2
20:00 46.9 °F 41.7 °F 29.90 in West 4.0 mph 4.0 mph 82 % 0.00 in 0 W/m2
20:10 47.0 °F 41.8 °F 29.89 in WNW 4.0 mph 22.0 mph 82 % 0.00 in 0 W/m2
20:15 46.9 °F 41.7 °F 29.89 in NW 3.0 mph 22.0 mph 82 % 0.00 in 0 W/m2
20:20 46.8 °F 41.9 °F 29.89 in WNW 3.0 mph 3.0 mph 83 % 0.00 in 0 W/m2
20:30 46.6 °F 41.7 °F 29.90 in ESE 2.0 mph 22.0 mph 83 % 0.00 in 0 W/m2
20:35 46.4 °F 41.2 °F 29.89 in ESE 2.0 mph 22.0 mph 82 % 0.00 in 0 W/m2
20:45 46.0 °F 41.1 °F 29.90 in ESE 2.0 mph 22.0 mph 83 % 0.00 in 0 W/m2
20:50 45.9 °F 41.0 °F 29.90 in ESE 1.0 mph 1.0 mph 83 % 0.00 in 0 W/m2
20:55 45.7 °F 40.8 °F 29.90 in Calm   22.0 mph 83 % 0.00 in 0 W/m2
21:00 45.5 °F 40.6 °F 29.89 in Calm   22.0 mph 83 % 0.00 in 0 W/m2
21:05 45.5 °F 40.9 °F 29.89 in SW 1.0 mph 22.0 mph 84 % 0.00 in 0 W/m2
21:15 46.1 °F 41.5 °F 29.90 in SW 4.0 mph 22.0 mph 84 % 0.00 in 0 W/m2
21:20 46.3 °F 41.7 °F 29.90 in WSW 4.0 mph 22.0 mph 84 % 0.00 in 0 W/m2
21:25 46.4 °F 41.5 °F 29.90 in WSW 5.0 mph 22.0 mph 83 % 0.00 in 0 W/m2
21:30 46.5 °F 41.6 °F 29.89 in SW 5.0 mph 5.0 mph 83 % 0.00 in 0 W/m2
21:35 46.7 °F 41.8 °F 29.89 in West 5.0 mph 22.0 mph 83 % 0.00 in 0 W/m2
21:40 46.6 °F 41.4 °F 29.89 in West 3.0 mph 3.0 mph 82 % 0.00 in 0 W/m2
21:50 46.5 °F 41.3 °F 29.90 in WSW 3.0 mph 3.0 mph 82 % 0.00 in 0 W/m2
22:00 46.0 °F 40.8 °F 29.90 in WSW 1.0 mph 1.0 mph 82 % 0.00 in 0 W/m2
22:05 45.7 °F 40.5 °F 29.90 in WSW 1.0 mph 22.0 mph 82 % 0.00 in 0 W/m2
22:10 45.3 °F 40.1 °F 29.90 in Calm   22.0 mph 82 % 0.00 in 0 W/m2
22:15 45.0 °F 40.5 °F 29.90 in Calm   22.0 mph 84 % 0.00 in 0 W/m2
22:25 44.6 °F 40.1 °F 29.90 in ESE 1.0 mph 22.0 mph 84 % 0.00 in 0 W/m2
22:30 44.5 °F 40.3 °F 29.91 in ESE 2.0 mph 2.0 mph 85 % 0.00 in 0 W/m2
22:35 44.3 °F 40.1 °F 29.91 in ESE 2.0 mph 22.0 mph 85 % 0.00 in 0 W/m2
22:40 44.1 °F 39.9 °F 29.91 in ESE 1.0 mph 1.0 mph 85 % 0.00 in 0 W/m2
22:45 44.0 °F 40.1 °F 29.91 in Calm   22.0 mph 86 % 0.00 in 0 W/m2
22:55 44.0 °F 40.1 °F 29.91 in SSW 1.0 mph 22.0 mph 86 % 0.00 in 0 W/m2
23:00 44.2 °F 40.3 °F 29.91 in SW 2.0 mph 22.0 mph 86 % 0.00 in 0 W/m2
23:05 44.9 °F 41.0 °F 29.91 in WSW 5.0 mph 22.0 mph 86 % 0.00 in 0 W/m2
23:10 45.4 °F 41.2 °F 29.90 in WSW 8.0 mph 8.0 mph 85 % 0.00 in 0 W/m2
23:15 45.7 °F 41.1 °F 29.91 in WSW 8.0 mph 22.0 mph 84 % 0.00 in 0 W/m2
23:25 46.5 °F 41.3 °F 29.91 in WSW 10.0 mph 22.0 mph 82 % 0.00 in 0 W/m2
23:35 47.2 °F 41.3 °F 29.91 in WSW 11.0 mph 14.0 mph 80 % 0.00 in 0 W/m2
23:40 47.3 °F 41.4 °F 29.91 in WSW 10.0 mph 22.0 mph 80 % 0.00 in 0 W/m2
23:45 47.5 °F 41.3 °F 29.91 in WSW 11.0 mph 22.0 mph 79 % 0.00 in 0 W/m2
23:50 47.5 °F 41.3 °F 29.91 in WSW 10.0 mph 10.0 mph 79 % 0.00 in 0 W/m2
23:55 47.2 °F 41.0 °F 29.91 in WSW 8.0 mph 22.0 mph 79 % 0.00 in 0 W/m2
Delerius-Weather
Compliments of Weather Underground - 2 mb

Data updates at regular intervals.